Time;durP1;ratioP1;P1;durP2;ratioP2;P2;SDS_P1;SDS_P2;PMS_P1;PMS_P2;Temp;Humidity;BMP_temperature;BMP_pressure;BME280_temperature;BME280_humidity;BME280_pressure;Samples;Min_cycle;Max_cycle;Signal;HPM_P1;HPM_P2
2022/08/08 00:00:58;;;;;;;6.00;5.50;;;;;;;;;;5054052;28;20205;-81
2022/08/08 00:03:32;;;;;;;6.17;5.57;;;;;;;;;;5053681;28;20668;-80
2022/08/08 00:06:02;;;;;;;7.53;5.70;;;;;;;;;;5053351;28;20202;-80
2022/08/08 00:08:33;;;;;;;5.43;5.03;;;;;;;;;;5053685;28;20614;-81
2022/08/08 00:11:06;;;;;;;7.70;6.23;;;;;;;;;;5053661;28;20221;-81
2022/08/08 00:13:41;;;;;;;6.03;5.53;;;;;;;;;;5052491;28;20327;-82
2022/08/08 00:16:10;;;;;;;5.60;5.03;;;;;;;;;;5053803;28;20208;-81
2022/08/08 00:18:43;;;;;;;9.20;4.07;;;;;;;;;;5052141;28;20202;-82
2022/08/08 00:21:11;;;;;;;5.00;4.53;;;;;;;;;;5053251;28;20198;-81
2022/08/08 00:23:43;;;;;;;4.50;4.10;;;;;;;;;;5051891;28;20210;-81
2022/08/08 00:26:12;;;;;;;4.67;4.27;;;;;;;;;;5053127;28;20205;-81
2022/08/08 00:28:43;;;;;;;7.73;4.27;;;;;;;;;;5052653;28;20259;-81
2022/08/08 00:31:16;;;;;;;4.43;4.13;;;;;;;;;;5053559;28;20217;-81
2022/08/08 00:33:49;;;;;;;6.03;3.97;;;;;;;;;;5052962;28;20194;-82
2022/08/08 00:36:24;;;;;;;6.13;4.57;;;;;;;;;;5053821;28;20201;-81
2022/08/08 00:39:01;;;;;;;4.80;4.23;;;;;;;;;;5052998;28;20193;-83
2022/08/08 00:42:09;;;;;;;4.27;3.87;;;;;;;;;;5052719;28;20691;-83
2022/08/08 00:44:58;;;;;;;6.27;4.10;;;;;;;;;;5042523;28;20228;-83
2022/08/08 00:47:50;;;;;;;5.53;4.17;;;;;;;;;;5053009;28;20567;-82
2022/08/08 00:50:51;;;;;;;5.20;4.03;;;;;;;;;;5036692;28;20633;-80
2022/08/08 00:53:30;;;;;;;6.50;4.00;;;;;;;;;;5034942;28;20202;-81
2022/08/08 00:56:19;;;;;;;4.83;4.23;;;;;;;;;;5067293;28;20202;-80
2022/08/08 00:59:22;;;;;;;6.47;4.63;;;;;;;;;;5052349;28;20209;-81
2022/08/08 01:01:58;;;;;;;6.47;4.37;;;;;;;;;;5051975;28;20209;-80
2022/08/08 01:04:59;;;;;;;4.63;4.23;;;;;;;;;;5034874;28;20229;-80
2022/08/08 01:08:13;;;;;;;7.33;4.57;;;;;;;;;;5052634;28;20189;-80
2022/08/08 01:10:57;;;;;;;7.30;4.47;;;;;;;;;;5039590;28;20226;-81
2022/08/08 01:14:01;;;;;;;5.30;4.80;;;;;;;;;;5067577;28;20275;-80
2022/08/08 01:16:54;;;;;;;4.23;3.93;;;;;;;;;;5053130;28;20663;-80
2022/08/08 01:19:54;;;;;;;5.13;4.67;;;;;;;;;;5050729;28;20212;-82
2022/08/08 01:22:57;;;;;;;4.60;4.20;;;;;;;;;;5051285;28;20197;-81
2022/08/08 01:25:58;;;;;;;5.40;4.63;;;;;;;;;;5045467;28;20595;-81
2022/08/08 01:28:43;;;;;;;6.20;4.10;;;;;;;;;;5051958;28;20194;-83
2022/08/08 01:31:47;;;;;;;6.80;4.70;;;;;;;;;;5051973;28;20198;-82
2022/08/08 01:34:52;;;;;;;5.57;5.07;;;;;;;;;;5067522;28;20205;-82
2022/08/08 01:37:48;;;;;;;5.60;4.53;;;;;;;;;;5049836;28;20631;-82
2022/08/08 01:40:24;;;;;;;5.13;4.73;;;;;;;;;;5052763;28;20193;-83
2022/08/08 01:42:54;;;;;;;5.37;4.00;;;;;;;;;;5051657;28;20202;-83
2022/08/08 01:45:46;;;;;;;6.30;4.13;;;;;;;;;;5050592;28;20225;-82
2022/08/08 01:48:18;;;;;;;8.13;4.20;;;;;;;;;;5049429;28;20638;-83
2022/08/08 01:50:58;;;;;;;4.60;4.20;;;;;;;;;;5051754;28;20194;-83
2022/08/08 01:53:37;;;;;;;5.00;4.50;;;;;;;;;;5051666;28;20201;-83
2022/08/08 01:56:09;;;;;;;4.47;4.07;;;;;;;;;;5051756;28;20202;-82
2022/08/08 01:58:40;;;;;;;5.70;5.10;;;;;;;;;;5083611;28;20204;-84
2022/08/08 02:01:15;;;;;;;5.77;4.33;;;;;;;;;;5052006;28;20328;-84
2022/08/08 02:03:54;;;;;;;4.50;3.80;;;;;;;;;;5083003;28;20669;-83
2022/08/08 02:06:28;;;;;;;5.37;4.23;;;;;;;;;;5051774;28;20221;-83
2022/08/08 02:09:01;;;;;;;5.30;4.10;;;;;;;;;;5051469;28;20200;-83
2022/08/08 02:11:32;;;;;;;4.60;4.20;;;;;;;;;;5051932;28;20268;-83
2022/08/08 02:14:03;;;;;;;4.50;4.20;;;;;;;;;;5051871;28;20197;-83
2022/08/08 02:16:45;;;;;;;9.40;5.00;;;;;;;;;;5051559;28;20236;-82
2022/08/08 02:22:42;;;;;;;4.30;3.90;;;;;;;;;;5051876;28;20201;-84
2022/08/08 02:25:17;;;;;;;4.63;4.10;;;;;;;;;;5051264;28;20707;-83
2022/08/08 02:27:47;;;;;;;4.30;3.90;;;;;;;;;;5051511;28;20201;-82
2022/08/08 02:30:18;;;;;;;3.93;3.63;;;;;;;;;;5052610;28;20545;-84
2022/08/08 02:33:19;;;;;;;5.03;4.57;;;;;;;;;;5051381;28;20198;-83
2022/08/08 02:35:53;;;;;;;9.03;4.37;;;;;;;;;;5067165;28;20205;-83
2022/08/08 02:38:34;;;;;;;5.73;4.33;;;;;;;;;;5049959;28;20778;-82
2022/08/08 02:41:28;;;;;;;6.33;3.97;;;;;;;;;;5050342;28;20205;-84
2022/08/08 02:44:31;;;;;;;4.50;3.73;;;;;;;;;;5053012;28;20638;-85
2022/08/08 02:47:40;;;;;;;4.57;3.73;;;;;;;;;;5055680;28;20286;-83
2022/08/08 02:50:45;;;;;;;5.43;3.53;;;;;;;;;;5055615;28;20552;-84
2022/08/08 02:53:31;;;;;;;5.57;4.13;;;;;;;;;;5054898;28;20668;-84
2022/08/08 02:56:48;;;;;;;4.33;3.93;;;;;;;;;;5054997;28;20602;-82
2022/08/08 03:00:05;;;;;;;4.07;3.63;;;;;;;;;;5038845;28;20684;-83
2022/08/08 03:02:55;;;;;;;3.90;3.60;;;;;;;;;;5054721;28;20197;-82
2022/08/08 03:06:10;;;;;;;4.50;3.70;;;;;;;;;;5054628;28;20229;-83
2022/08/08 03:09:14;;;;;;;3.50;3.27;;;;;;;;;;5012941;28;20625;-83
2022/08/08 03:12:28;;;;;;;5.80;4.10;;;;;;;;;;5054746;28;20650;-83
2022/08/08 03:15:12;;;;;;;5.23;3.60;;;;;;;;;;5054885;28;20213;-84
2022/08/08 03:21:00;;;;;;;4.47;4.07;;;;;;;;;;5054834;28;20264;-81
2022/08/08 03:23:29;;;;;;;4.43;4.03;;;;;;;;;;5054130;28;20198;-81
2022/08/08 03:25:57;;;;;;;5.50;4.10;;;;;;;;;;5070447;28;20233;-81
2022/08/08 03:28:30;;;;;;;5.73;3.77;;;;;;;;;;5054553;28;20214;-86
2022/08/08 03:30:58;;;;;;;3.90;3.50;;;;;;;;;;5053040;28;20205;-86
2022/08/08 03:33:34;;;;;;;4.03;3.63;;;;;;;;;;5062036;28;20288;-83
2022/08/08 03:36:01;;;;;;;5.03;3.30;;;;;;;;;;5057948;28;20632;-85
2022/08/08 03:38:30;;;;;;;6.07;3.60;;;;;;;;;;5053537;28;20204;-84
2022/08/08 03:40:58;;;;;;;4.70;3.80;;;;;;;;;;5041826;28;20206;-90
2022/08/08 03:43:26;;;;;;;5.30;4.23;;;;;;;;;;5054846;28;20205;-88
2022/08/08 03:45:53;;;;;;;5.20;4.10;;;;;;;;;;5053842;28;20603;-88
2022/08/08 03:48:20;;;;;;;7.00;4.07;;;;;;;;;;5067437;28;20205;-82
2022/08/08 03:50:49;;;;;;;13.27;4.33;;;;;;;;;;5074522;28;20204;-84
2022/08/08 03:53:17;;;;;;;4.10;3.80;;;;;;;;;;5073925;28;20579;-84
2022/08/08 03:55:48;;;;;;;4.33;4.00;;;;;;;;;;5077616;28;20286;-85
2022/08/08 03:58:20;;;;;;;8.03;3.60;;;;;;;;;;5089131;28;20204;-84
2022/08/08 04:00:52;;;;;;;3.67;3.37;;;;;;;;;;5089278;28;20633;-85
2022/08/08 04:03:20;;;;;;;3.67;3.37;;;;;;;;;;5074038;28;20313;-84
2022/08/08 04:05:47;;;;;;;5.30;3.50;;;;;;;;;;5066528;28;20210;-84
2022/08/08 04:08:19;;;;;;;6.20;3.83;;;;;;;;;;5053252;28;20708;-83
2022/08/08 04:10:49;;;;;;;3.67;3.37;;;;;;;;;;5064319;28;20232;-83
2022/08/08 04:13:16;;;;;;;3.93;3.37;;;;;;;;;;5062489;28;20252;-85
2022/08/08 04:15:44;;;;;;;4.40;4.00;;;;;;;;;;5052683;28;20201;-83
2022/08/08 04:18:11;;;;;;;6.67;3.83;;;;;;;;;;5053448;28;20206;-83
2022/08/08 04:20:39;;;;;;;5.70;3.60;;;;;;;;;;5084568;28;20216;-83
2022/08/08 04:23:06;;;;;;;8.50;4.60;;;;;;;;;;5052285;28;20194;-83
2022/08/08 04:25:34;;;;;;;5.50;3.40;;;;;;;;;;5051522;28;20240;-84
2022/08/08 04:28:02;;;;;;;5.03;3.33;;;;;;;;;;5084793;28;20213;-83
2022/08/08 04:30:29;;;;;;;4.97;3.57;;;;;;;;;;5056342;28;20207;-83
2022/08/08 04:32:56;;;;;;;3.90;3.60;;;;;;;;;;5062292;28;20202;-84
2022/08/08 04:35:23;;;;;;;4.90;3.93;;;;;;;;;;5051840;28;20267;-84
2022/08/08 04:37:50;;;;;;;4.17;3.80;;;;;;;;;;5051683;28;20205;-83
2022/08/08 04:40:17;;;;;;;6.90;3.33;;;;;;;;;;5051910;28;20603;-84
2022/08/08 04:42:44;;;;;;;4.77;3.67;;;;;;;;;;5052081;28;20395;-84
2022/08/08 04:45:12;;;;;;;3.60;3.40;;;;;;;;;;5051631;28;20194;-84
2022/08/08 04:47:39;;;;;;;5.20;3.70;;;;;;;;;;5052071;28;20209;-84
2022/08/08 04:50:07;;;;;;;5.67;3.70;;;;;;;;;;5058924;28;20204;-84
2022/08/08 04:52:34;;;;;;;4.93;3.43;;;;;;;;;;5058240;28;20206;-82
2022/08/08 04:55:01;;;;;;;3.90;3.60;;;;;;;;;;5056107;28;20194;-83
2022/08/08 04:57:28;;;;;;;6.67;4.20;;;;;;;;;;5068345;28;20189;-83
2022/08/08 04:59:55;;;;;;;4.33;3.63;;;;;;;;;;5052095;28;20194;-83
2022/08/08 05:02:23;;;;;;;4.20;3.80;;;;;;;;;;5051268;28;20198;-83
2022/08/08 05:04:50;;;;;;;4.73;3.60;;;;;;;;;;5051348;28;20271;-83
2022/08/08 05:07:17;;;;;;;3.83;3.57;;;;;;;;;;5051019;28;20221;-83
2022/08/08 05:09:43;;;;;;;6.93;3.63;;;;;;;;;;5051056;28;20659;-84
2022/08/08 05:12:10;;;;;;;6.33;3.53;;;;;;;;;;5064796;28;20678;-83
2022/08/08 05:14:37;;;;;;;6.80;3.80;;;;;;;;;;5064141;28;20193;-84
2022/08/08 05:17:04;;;;;;;5.57;3.90;;;;;;;;;;5051054;28;20695;-83
2022/08/08 05:19:34;;;;;;;8.30;4.40;;;;;;;;;;5051286;28;20283;-84
2022/08/08 05:22:01;;;;;;;5.90;3.60;;;;;;;;;;5051723;28;20202;-83
2022/08/08 05:24:27;;;;;;;4.10;3.70;;;;;;;;;;5063280;28;20204;-85
2022/08/08 05:26:54;;;;;;;4.60;4.20;;;;;;;;;;5064564;28;20226;-84
2022/08/08 05:29:21;;;;;;;3.77;3.40;;;;;;;;;;5050961;28;20221;-84
2022/08/08 05:31:48;;;;;;;5.67;3.70;;;;;;;;;;5051052;28;20201;-84
2022/08/08 05:34:26;;;;;;;4.57;4.17;;;;;;;;;;5050992;28;20284;-85
2022/08/08 05:36:56;;;;;;;3.80;3.50;;;;;;;;;;5051365;28;20255;-83
2022/08/08 05:39:24;;;;;;;9.63;3.80;;;;;;;;;;5051285;28;20206;-85
2022/08/08 05:41:52;;;;;;;8.23;3.37;;;;;;;;;;5066759;28;20198;-84
2022/08/08 05:44:21;;;;;;;4.40;4.00;;;;;;;;;;5050571;28;20198;-83
2022/08/08 05:46:49;;;;;;;4.37;3.83;;;;;;;;;;5051487;28;20229;-82
2022/08/08 05:49:16;;;;;;;3.37;3.07;;;;;;;;;;5052468;28;20552;-83
2022/08/08 05:51:44;;;;;;;7.63;3.93;;;;;;;;;;5052452;28;20231;-83
2022/08/08 05:54:13;;;;;;;5.60;3.77;;;;;;;;;;5064163;28;20201;-84
2022/08/08 05:56:41;;;;;;;4.20;3.40;;;;;;;;;;5059906;28;20201;-85
2022/08/08 05:59:13;;;;;;;8.60;3.37;;;;;;;;;;5053567;28;20198;-84
2022/08/08 06:01:42;;;;;;;5.23;3.33;;;;;;;;;;5051073;28;20205;-85
2022/08/08 06:04:11;;;;;;;3.77;3.47;;;;;;;;;;5050372;28;20210;-84
2022/08/08 06:06:40;;;;;;;8.03;3.87;;;;;;;;;;5050672;28;20217;-84
2022/08/08 06:09:08;;;;;;;5.83;3.93;;;;;;;;;;5050736;28;20204;-84
2022/08/08 06:11:37;;;;;;;3.50;3.20;;;;;;;;;;5056001;28;20308;-84
2022/08/08 06:14:05;;;;;;;5.83;3.87;;;;;;;;;;5056770;28;20201;-85
2022/08/08 06:16:33;;;;;;;3.47;3.20;;;;;;;;;;5051078;28;20193;-85
2022/08/08 06:19:00;;;;;;;4.40;3.80;;;;;;;;;;5066941;28;20201;-85
2022/08/08 06:21:27;;;;;;;4.03;3.53;;;;;;;;;;5055846;28;20292;-85
2022/08/08 06:23:55;;;;;;;5.70;4.40;;;;;;;;;;5054704;28;20256;-84
2022/08/08 06:26:24;;;;;;;4.10;3.70;;;;;;;;;;5057686;28;20218;-84
2022/08/08 06:28:55;;;;;;;6.20;3.67;;;;;;;;;;5063235;28;20184;-85
2022/08/08 06:31:23;;;;;;;5.63;3.43;;;;;;;;;;5057780;28;20190;-84
2022/08/08 06:33:52;;;;;;;4.97;3.67;;;;;;;;;;5054776;28;20597;-83
2022/08/08 06:36:22;;;;;;;4.20;3.90;;;;;;;;;;5054123;28;20202;-84
2022/08/08 06:38:50;;;;;;;5.80;3.83;;;;;;;;;;5054499;28;20259;-84
2022/08/08 06:41:17;;;;;;;3.93;3.53;;;;;;;;;;5054135;28;20193;-84
2022/08/08 06:43:46;;;;;;;5.23;3.53;;;;;;;;;;5067583;28;20687;-84
2022/08/08 06:46:14;;;;;;;5.17;3.53;;;;;;;;;;5054566;28;20581;-83
2022/08/08 06:48:42;;;;;;;4.53;4.13;;;;;;;;;;5053828;28;20202;-83
2022/08/08 06:51:11;;;;;;;4.83;3.87;;;;;;;;;;5053435;28;20194;-84
2022/08/08 06:53:38;;;;;;;3.00;2.80;;;;;;;;;;5058915;28;20202;-84
2022/08/08 06:56:05;;;;;;;7.03;3.83;;;;;;;;;;5058712;28;20205;-83
2022/08/08 06:58:32;;;;;;;4.30;3.83;;;;;;;;;;5061612;28;20202;-84
2022/08/08 07:01:01;;;;;;;4.15;3.63;;;;;;;;;;5053944;28;20194;-83
2022/08/08 07:03:41;;;;;;;7.60;3.50;;;;;;;;;;5053910;28;20664;-83
2022/08/08 07:06:10;;;;;;;3.38;3.08;;;;;;;;;;5053960;28;20222;-83
2022/08/08 07:08:38;;;;;;;6.50;3.23;;;;;;;;;;5060390;28;20185;-84
2022/08/08 07:11:07;;;;;;;3.55;3.30;;;;;;;;;;5056715;28;20788;-83
2022/08/08 07:13:39;;;;;;;7.82;3.35;;;;;;;;;;5054512;28;20288;-83
2022/08/08 07:16:14;;;;;;;5.32;3.22;;;;;;;;;;5053444;28;20198;-84
2022/08/08 07:18:51;;;;;;;4.47;2.90;;;;;;;;;;5053611;28;20220;-84
2022/08/08 07:21:19;;;;;;;3.38;2.83;;;;;;;;;;5053249;28;20209;-85
2022/08/08 07:23:53;;;;;;;13.00;3.45;;;;;;;;;;5055585;28;20197;-84
2022/08/08 07:26:21;;;;;;;3.78;2.72;;;;;;;;;;5070073;28;20220;-83
2022/08/08 07:28:49;;;;;;;4.40;2.83;;;;;;;;;;5062685;28;20205;-83
2022/08/08 07:31:17;;;;;;;4.43;3.40;;;;;;;;;;5053157;28;20678;-83
2022/08/08 07:33:45;;;;;;;5.70;2.65;;;;;;;;;;5053304;28;20198;-82
2022/08/08 07:36:12;;;;;;;3.22;2.75;;;;;;;;;;5053564;28;20198;-83
2022/08/08 07:38:39;;;;;;;5.25;3.22;;;;;;;;;;5053268;28;20197;-84
2022/08/08 07:41:08;;;;;;;3.03;2.72;;;;;;;;;;5053217;28;20548;-83
2022/08/08 07:43:35;;;;;;;3.95;2.70;;;;;;;;;;5057532;28;20205;-83
2022/08/08 07:46:02;;;;;;;3.08;2.70;;;;;;;;;;5062183;28;20202;-84
2022/08/08 07:48:29;;;;;;;3.20;2.95;;;;;;;;;;5052656;28;20202;-83
2022/08/08 07:50:59;;;;;;;5.65;3.00;;;;;;;;;;5054221;28;20198;-83
2022/08/08 07:53:31;;;;;;;3.58;2.92;;;;;;;;;;5055475;28;20229;-84
2022/08/08 07:56:01;;;;;;;2.83;2.63;;;;;;;;;;5057613;28;20201;-84
2022/08/08 07:58:31;;;;;;;4.60;3.10;;;;;;;;;;5061479;28;20205;-84
2022/08/08 08:01:04;;;;;;;4.25;3.13;;;;;;;;;;5052578;28;20201;-83
2022/08/08 08:03:34;;;;;;;4.38;3.00;;;;;;;;;;5052608;28;20209;-83
2022/08/08 08:06:05;;;;;;;3.83;3.03;;;;;;;;;;5052380;28;20194;-83
2022/08/08 08:08:37;;;;;;;3.45;2.90;;;;;;;;;;5053045;28;20687;-83
2022/08/08 08:11:08;;;;;;;5.72;3.60;;;;;;;;;;5052446;28;20268;-83
2022/08/08 08:13:36;;;;;;;5.93;3.20;;;;;;;;;;5052655;28;20195;-83
2022/08/08 08:16:07;;;;;;;4.47;2.70;;;;;;;;;;5052808;28;20198;-83
2022/08/08 08:18:39;;;;;;;3.90;2.30;;;;;;;;;;5052336;28;20557;-83
2022/08/08 08:21:09;;;;;;;3.17;2.03;;;;;;;;;;5052607;28;20201;-83
2022/08/08 08:23:36;;;;;;;3.08;2.70;;;;;;;;;;5052499;28;20209;-83
2022/08/08 08:26:02;;;;;;;6.13;2.63;;;;;;;;;;5065560;28;20663;-84
2022/08/08 08:28:29;;;;;;;3.05;2.60;;;;;;;;;;5059641;28;20225;-83
2022/08/08 08:31:03;;;;;;;3.42;2.13;;;;;;;;;;5052078;28;20260;-82
2022/08/08 08:33:30;;;;;;;3.33;2.53;;;;;;;;;;5051826;28;20288;-83
2022/08/08 08:35:57;;;;;;;3.13;2.15;;;;;;;;;;5051945;28;20630;-82
2022/08/08 08:38:25;;;;;;;4.85;2.40;;;;;;;;;;5066137;28;20204;-83
2022/08/08 08:40:52;;;;;;;11.50;3.33;;;;;;;;;;5050747;28;20198;-84
2022/08/08 08:43:19;;;;;;;11.65;3.03;;;;;;;;;;5052199;28;20205;-82
2022/08/08 08:45:48;;;;;;;6.38;2.50;;;;;;;;;;5052638;28;20634;-82
2022/08/08 08:48:17;;;;;;;3.97;2.45;;;;;;;;;;5051980;28;20228;-82
2022/08/08 08:50:45;;;;;;;8.70;3.13;;;;;;;;;;5054321;28;20213;-83
2022/08/08 08:53:12;;;;;;;11.88;2.83;;;;;;;;;;5059437;28;20201;-83
2022/08/08 08:55:41;;;;;;;19.27;3.72;;;;;;;;;;5054081;28;20232;-83
2022/08/08 08:58:08;;;;;;;9.80;2.47;;;;;;;;;;5062869;28;20667;-83
2022/08/08 09:00:37;;;;;;;7.45;2.85;;;;;;;;;;5051313;28;20206;-82
2022/08/08 09:03:08;;;;;;;7.95;2.60;;;;;;;;;;5051741;28;20208;-82
2022/08/08 09:05:40;;;;;;;5.32;2.60;;;;;;;;;;5051281;28;20695;-83
2022/08/08 09:08:08;;;;;;;2.65;2.08;;;;;;;;;;5051703;28;20303;-84
2022/08/08 09:10:38;;;;;;;4.47;2.70;;;;;;;;;;5051496;28;20229;-83
2022/08/08 09:13:06;;;;;;;3.22;2.47;;;;;;;;;;5051252;28;20190;-81
2022/08/08 09:15:33;;;;;;;7.32;2.45;;;;;;;;;;5051202;28;20205;-81
2022/08/08 09:18:01;;;;;;;2.35;2.13;;;;;;;;;;5051277;28;20198;-82
2022/08/08 09:20:28;;;;;;;2.45;2.25;;;;;;;;;;5051242;28;20687;-82
2022/08/08 09:22:56;;;;;;;4.78;2.15;;;;;;;;;;5053469;28;20209;-83
2022/08/08 09:25:24;;;;;;;3.70;2.40;;;;;;;;;;5070682;28;20247;-82
2022/08/08 09:27:51;;;;;;;2.97;2.40;;;;;;;;;;5057260;28;20217;-82
2022/08/08 09:30:19;;;;;;;3.40;2.03;;;;;;;;;;5069210;28;20204;-81
2022/08/08 09:32:47;;;;;;;2.20;2.00;;;;;;;;;;5051003;28;20573;-82
2022/08/08 09:35:17;;;;;;;4.22;2.50;;;;;;;;;;5051296;28;20561;-81
2022/08/08 09:37:46;;;;;;;4.22;2.30;;;;;;;;;;5051012;28;20224;-81
2022/08/08 09:40:16;;;;;;;4.35;2.40;;;;;;;;;;5051063;28;20194;-82
2022/08/08 09:42:44;;;;;;;6.70;2.47;;;;;;;;;;5050982;28;20205;-81
2022/08/08 09:45:13;;;;;;;4.55;2.63;;;;;;;;;;5064567;28;20197;-82
2022/08/08 09:47:43;;;;;;;5.45;2.47;;;;;;;;;;5050749;28;20221;-82
2022/08/08 09:50:14;;;;;;;6.75;2.10;;;;;;;;;;5064441;28;20190;-81
2022/08/08 09:52:43;;;;;;;3.13;2.63;;;;;;;;;;5053116;28;20251;-81
2022/08/08 09:55:10;;;;;;;3.50;2.70;;;;;;;;;;5050405;28;20198;-82
2022/08/08 09:57:38;;;;;;;5.15;2.83;;;;;;;;;;5067738;28;20205;-80
2022/08/08 10:00:08;;;;;;;2.30;2.10;;;;;;;;;;5050736;28;20202;-81
2022/08/08 10:02:37;;;;;;;2.72;2.45;;;;;;;;;;5050425;28;20194;-81
2022/08/08 10:05:08;;;;;;;3.03;2.42;;;;;;;;;;5052208;28;20264;-81
2022/08/08 10:07:36;;;;;;;2.55;2.33;;;;;;;;;;5050498;28;20351;-81
2022/08/08 10:10:03;;;;;;;3.33;2.10;;;;;;;;;;5050482;28;20574;-81
2022/08/08 10:12:35;;;;;;;3.10;2.65;;;;;;;;;;5050818;28;20198;-82
2022/08/08 10:15:02;;;;;;;2.80;2.45;;;;;;;;;;5051681;28;20197;-80
2022/08/08 10:17:31;;;;;;;6.55;2.00;;;;;;;;;;5050299;28;20279;-81
2022/08/08 10:19:59;;;;;;;2.60;2.38;;;;;;;;;;5057445;28;20539;-82
2022/08/08 10:22:28;;;;;;;4.63;2.20;;;;;;;;;;5056412;28;20189;-83
2022/08/08 10:25:02;;;;;;;2.08;1.90;;;;;;;;;;5063712;28;20201;-81
2022/08/08 10:27:29;;;;;;;6.38;2.58;;;;;;;;;;5050435;28;20789;-82
2022/08/08 10:30:00;;;;;;;6.45;2.58;;;;;;;;;;5050915;28;20202;-81
2022/08/08 10:32:36;;;;;;;6.60;2.70;;;;;;;;;;5061144;28;20262;-81
2022/08/08 10:35:06;;;;;;;7.50;2.90;;;;;;;;;;5061536;28;20284;-81
2022/08/08 10:37:35;;;;;;;6.75;2.67;;;;;;;;;;5050219;28;20213;-82
2022/08/08 10:40:13;;;;;;;3.63;2.83;;;;;;;;;;5050761;28;20198;-81
2022/08/08 10:42:42;;;;;;;2.63;2.42;;;;;;;;;;5050248;28;20280;-82
2022/08/08 10:45:10;;;;;;;3.65;2.47;;;;;;;;;;5050347;28;20222;-81
2022/08/08 10:47:38;;;;;;;2.10;1.95;;;;;;;;;;5050091;28;20669;-81
2022/08/08 10:50:07;;;;;;;4.75;3.15;;;;;;;;;;5050041;28;20197;-82
2022/08/08 10:52:36;;;;;;;4.75;2.47;;;;;;;;;;5052983;28;20197;-81
2022/08/08 10:55:06;;;;;;;4.47;2.47;;;;;;;;;;5065880;28;20208;-81
2022/08/08 10:57:37;;;;;;;3.92;2.78;;;;;;;;;;5063327;28;20225;-81
2022/08/08 11:00:06;;;;;;;5.75;2.88;;;;;;;;;;5059635;28;20613;-81
2022/08/08 11:02:34;;;;;;;6.95;3.35;;;;;;;;;;5053907;28;20194;-81
2022/08/08 11:05:02;;;;;;;10.43;3.22;;;;;;;;;;5061854;28;20201;-80
2022/08/08 11:07:31;;;;;;;9.18;3.22;;;;;;;;;;5059529;28;20217;-81
2022/08/08 11:10:02;;;;;;;4.40;2.63;;;;;;;;;;5053797;28;20205;-80
2022/08/08 11:12:29;;;;;;;8.55;3.03;;;;;;;;;;5054006;28;20197;-80
2022/08/08 11:14:58;;;;;;;7.28;2.80;;;;;;;;;;5054016;28;20194;-80
2022/08/08 11:17:27;;;;;;;5.57;2.92;;;;;;;;;;5053390;28;20676;-80
2022/08/08 11:19:54;;;;;;;3.03;2.83;;;;;;;;;;5053469;28;20198;-81
2022/08/08 11:22:26;;;;;;;3.58;2.90;;;;;;;;;;5053733;28;20581;-81
2022/08/08 11:24:55;;;;;;;6.30;2.63;;;;;;;;;;5053731;28;20198;-80
2022/08/08 11:27:25;;;;;;;4.20;2.42;;;;;;;;;;5062858;28;20217;-80
2022/08/08 11:29:56;;;;;;;3.28;2.60;;;;;;;;;;5069845;28;20644;-80
2022/08/08 11:32:26;;;;;;;7.97;2.42;;;;;;;;;;5053344;28;20201;-80
2022/08/08 11:34:55;;;;;;;3.30;2.40;;;;;;;;;;5053299;28;20194;-80
2022/08/08 11:37:24;;;;;;;4.18;2.60;;;;;;;;;;5053037;28;20636;-80
2022/08/08 11:39:52;;;;;;;4.13;2.88;;;;;;;;;;5053127;28;20209;-80
2022/08/08 11:42:19;;;;;;;5.93;3.53;;;;;;;;;;5053040;28;20194;-80
2022/08/08 11:44:48;;;;;;;7.22;2.70;;;;;;;;;;5052953;28;20198;-81
2022/08/08 11:47:15;;;;;;;2.60;2.40;;;;;;;;;;5052674;28;20194;-81
2022/08/08 11:49:43;;;;;;;3.08;2.30;;;;;;;;;;5052991;28;20624;-81
2022/08/08 11:52:10;;;;;;;4.53;2.20;;;;;;;;;;5057495;28;20200;-80
2022/08/08 11:54:37;;;;;;;4.28;2.70;;;;;;;;;;5065827;28;20262;-80
2022/08/08 11:57:11;;;;;;;2.38;2.22;;;;;;;;;;5071040;28;20266;-80
2022/08/08 11:59:43;;;;;;;4.38;2.72;;;;;;;;;;5063529;28;20196;-81
2022/08/08 12:02:11;;;;;;;11.88;2.88;;;;;;;;;;5052906;28;20201;-81
2022/08/08 12:04:38;;;;;;;13.18;3.25;;;;;;;;;;5053053;28;20577;-80
2022/08/08 12:07:06;;;;;;;3.33;2.75;;;;;;;;;;5052561;28;20209;-81
2022/08/08 12:09:34;;;;;;;4.45;3.17;;;;;;;;;;5052404;28;20236;-82
2022/08/08 12:12:01;;;;;;;7.13;2.10;;;;;;;;;;5052078;28;20221;-82
2022/08/08 12:14:28;;;;;;;7.00;2.85;;;;;;;;;;5052834;28;20265;-80
2022/08/08 12:16:55;;;;;;;5.05;3.05;;;;;;;;;;5061017;28;20554;-81
2022/08/08 12:19:25;;;;;;;9.10;3.00;;;;;;;;;;5073556;28;20608;-81
2022/08/08 12:21:52;;;;;;;8.13;3.03;;;;;;;;;;5052755;28;20641;-81
2022/08/08 12:24:21;;;;;;;6.78;2.90;;;;;;;;;;5052427;28;20198;-82
2022/08/08 12:26:49;;;;;;;5.47;3.95;;;;;;;;;;5060412;28;20223;-80
2022/08/08 12:29:22;;;;;;;3.50;3.20;;;;;;;;;;5054186;28;20227;-81
2022/08/08 12:32:01;;;;;;;5.28;4.28;;;;;;;;;;5051991;28;20212;-81
2022/08/08 12:34:40;;;;;;;7.03;2.90;;;;;;;;;;5052663;28;20229;-79
2022/08/08 12:37:09;;;;;;;9.05;2.90;;;;;;;;;;5051724;28;20643;-81
2022/08/08 12:39:37;;;;;;;12.25;3.25;;;;;;;;;;5052372;28;20201;-82
2022/08/08 12:42:04;;;;;;;5.18;2.70;;;;;;;;;;5057672;28;20225;-82
2022/08/08 12:44:31;;;;;;;13.27;4.05;;;;;;;;;;5060208;28;20672;-80
2022/08/08 12:46:59;;;;;;;10.90;3.55;;;;;;;;;;5051938;28;20630;-81
2022/08/08 12:49:28;;;;;;;10.73;2.97;;;;;;;;;;5051770;28;20224;-81
2022/08/08 12:51:57;;;;;;;2.45;2.25;;;;;;;;;;5067728;28;20229;-80
2022/08/08 12:54:25;;;;;;;3.60;3.03;;;;;;;;;;5063512;28;20197;-81
2022/08/08 12:56:53;;;;;;;4.55;3.05;;;;;;;;;;5062703;28;20647;-80
2022/08/08 12:59:22;;;;;;;9.52;5.10;;;;;;;;;;5053549;28;20244;-81
2022/08/08 13:01:51;;;;;;;3.97;3.47;;;;;;;;;;5051523;28;20221;-81
2022/08/08 13:04:19;;;;;;;4.43;3.00;;;;;;;;;;5051275;28;20190;-81
2022/08/08 13:06:53;;;;;;;7.68;2.80;;;;;;;;;;5065439;28;20223;-80
2022/08/08 13:09:35;;;;;;;2.97;2.72;;;;;;;;;;5058200;28;20217;-81
2022/08/08 13:12:11;;;;;;;2.42;2.22;;;;;;;;;;5051723;28;20229;-80
2022/08/08 13:14:39;;;;;;;4.85;2.83;;;;;;;;;;5065198;28;20217;-80
2022/08/08 13:17:06;;;;;;;4.80;3.95;;;;;;;;;;5051159;28;20198;-81
2022/08/08 13:19:35;;;;;;;5.93;3.50;;;;;;;;;;5068258;28;20254;-80
2022/08/08 13:22:02;;;;;;;29.23;5.20;;;;;;;;;;5051520;28;20613;-81
2022/08/08 13:24:31;;;;;;;2.95;2.60;;;;;;;;;;5051643;28;20217;-81
2022/08/08 13:27:06;;;;;;;5.80;2.92;;;;;;;;;;5058301;28;20211;-80
2022/08/08 13:29:33;;;;;;;3.13;2.58;;;;;;;;;;5059155;28;20225;-81
2022/08/08 13:32:02;;;;;;;3.47;2.03;;;;;;;;;;5051501;28;20198;-81
2022/08/08 13:34:30;;;;;;;2.65;2.28;;;;;;;;;;5050943;28;20198;-81
2022/08/08 13:36:57;;;;;;;3.53;2.78;;;;;;;;;;5050753;28;20209;-81
2022/08/08 13:39:24;;;;;;;4.70;2.65;;;;;;;;;;5051222;28;20263;-81
2022/08/08 13:41:54;;;;;;;3.13;2.63;;;;;;;;;;5050616;28;20217;-81
2022/08/08 13:44:21;;;;;;;2.60;2.40;;;;;;;;;;5051151;28;20225;-80
2022/08/08 13:47:01;;;;;;;3.40;3.00;;;;;;;;;;5050721;28;20280;-81
2022/08/08 13:49:29;;;;;;;4.10;2.95;;;;;;;;;;5050709;28;20584;-81
2022/08/08 13:52:01;;;;;;;5.68;3.17;;;;;;;;;;5064981;28;20190;-81
2022/08/08 13:54:29;;;;;;;4.20;2.30;;;;;;;;;;5050471;28;20641;-82
2022/08/08 13:57:03;;;;;;;2.83;2.35;;;;;;;;;;5063852;28;20228;-81
2022/08/08 13:59:31;;;;;;;9.57;3.45;;;;;;;;;;5066782;28;20197;-81
2022/08/08 14:01:58;;;;;;;4.15;3.13;;;;;;;;;;5051062;28;20251;-81
2022/08/08 14:04:26;;;;;;;3.40;3.10;;;;;;;;;;5066437;28;20197;-82
2022/08/08 14:07:03;;;;;;;3.58;3.28;;;;;;;;;;5050697;28;20280;-82
2022/08/08 14:09:35;;;;;;;7.28;6.55;;;;;;;;;;5065023;28;20220;-82
2022/08/08 14:12:05;;;;;;;5.80;4.97;;;;;;;;;;5051106;28;20229;-81
2022/08/08 14:14:40;;;;;;;4.35;3.85;;;;;;;;;;5050907;28;20614;-81
2022/08/08 14:17:08;;;;;;;7.82;4.78;;;;;;;;;;5050274;28;20205;-81
2022/08/08 14:19:37;;;;;;;12.57;7.50;;;;;;;;;;5050739;28;20213;-81
2022/08/08 14:22:14;;;;;;;10.02;6.38;;;;;;;;;;5050211;28;20189;-81
2022/08/08 14:24:47;;;;;;;12.10;4.45;;;;;;;;;;5050590;28;20605;-81
2022/08/08 14:27:21;;;;;;;5.90;4.93;;;;;;;;;;5050812;28;20205;-81
2022/08/08 14:29:57;;;;;;;7.90;5.65;;;;;;;;;;5050728;28;20641;-81
2022/08/08 14:32:24;;;;;;;15.05;7.00;;;;;;;;;;5050306;28;20196;-81
2022/08/08 14:34:51;;;;;;;6.90;3.90;;;;;;;;;;5050610;28;20271;-81
2022/08/08 14:37:19;;;;;;;7.80;4.55;;;;;;;;;;5050107;28;20197;-81
2022/08/08 14:39:51;;;;;;;3.53;3.15;;;;;;;;;;5066650;28;20686;-81
2022/08/08 14:42:35;;;;;;;2.95;2.75;;;;;;;;;;5053967;28;20194;-82
2022/08/08 14:45:04;;;;;;;3.88;3.58;;;;;;;;;;5055259;28;20206;-84
2022/08/08 14:47:31;;;;;;;4.85;4.00;;;;;;;;;;5062938;28;20202;-83
2022/08/08 14:50:07;;;;;;;3.67;3.38;;;;;;;;;;5066646;28;20227;-81
2022/08/08 14:52:44;;;;;;;5.07;4.18;;;;;;;;;;5073731;28;20196;-81
2022/08/08 14:55:12;;;;;;;5.07;4.43;;;;;;;;;;5056288;28;20197;-82
2022/08/08 14:57:40;;;;;;;7.88;4.55;;;;;;;;;;5067957;28;20189;-84
2022/08/08 15:00:51;;;;;;;3.55;3.25;;;;;;;;;;5074593;28;20204;-82
2022/08/08 15:03:27;;;;;;;5.28;3.58;;;;;;;;;;5056226;28;20202;-84
2022/08/08 15:05:54;;;;;;;3.35;2.83;;;;;;;;;;5070374;28;20200;-83
2022/08/08 15:08:22;;;;;;;3.65;3.15;;;;;;;;;;5053825;28;20201;-83
2022/08/08 15:10:50;;;;;;;4.60;3.42;;;;;;;;;;5057455;28;20233;-83
2022/08/08 15:13:18;;;;;;;4.13;2.75;;;;;;;;;;5037430;28;20202;-83
2022/08/08 15:15:45;;;;;;;3.53;3.30;;;;;;;;;;5036720;28;20210;-82
2022/08/08 15:18:12;;;;;;;5.68;3.08;;;;;;;;;;5053225;28;20200;-83
2022/08/08 15:20:41;;;;;;;3.67;3.30;;;;;;;;;;5053617;28;20210;-82